createdAt,value
2019-02-06T00:01:49.242Z,14.70
2019-02-06T00:04:19.025Z,15.13
2019-02-06T00:06:48.821Z,15.20
2019-02-06T00:09:18.601Z,15.40
2019-02-06T00:11:48.269Z,15.40
2019-02-06T00:14:20.209Z,16.67
2019-02-06T00:16:50.053Z,16.03
2019-02-06T00:19:20.205Z,15.90
2019-02-06T00:21:49.945Z,15.57
2019-02-06T00:24:19.723Z,14.97
2019-02-06T00:26:49.535Z,16.07
2019-02-06T00:29:19.345Z,17.33
2019-02-06T00:31:49.069Z,16.07
2019-02-06T00:34:19.020Z,16.20
2019-02-06T00:36:48.979Z,16.57
2019-02-06T00:39:18.742Z,16.20
2019-02-06T00:41:48.434Z,16.97
2019-02-06T00:44:18.212Z,16.47
2019-02-06T00:46:47.987Z,16.10
2019-02-06T00:49:17.929Z,15.17
2019-02-06T00:51:47.699Z,15.50
2019-02-06T00:54:17.518Z,16.50
2019-02-06T00:56:47.320Z,16.17
2019-02-06T00:59:17.097Z,15.70
2019-02-06T01:01:46.881Z,17.07
2019-02-06T01:04:16.673Z,18.53
2019-02-06T01:06:46.487Z,18.00
2019-02-06T01:09:16.181Z,17.17
2019-02-06T01:11:46.083Z,18.47
2019-02-06T01:14:15.829Z,17.80
2019-02-06T01:16:45.622Z,18.53
2019-02-06T01:19:15.339Z,18.23
2019-02-06T01:21:45.013Z,18.87
2019-02-06T01:24:14.663Z,18.60
2019-02-06T01:26:44.450Z,19.07
2019-02-06T01:29:14.222Z,20.47
2019-02-06T01:31:43.893Z,20.47
2019-02-06T01:34:13.654Z,22.43
2019-02-06T01:36:43.363Z,20.90
2019-02-06T01:39:14.201Z,20.83
2019-02-06T01:41:44.046Z,21.30
2019-02-06T01:44:13.821Z,20.97
2019-02-06T01:46:43.573Z,21.37
2019-02-06T01:49:13.412Z,20.30
2019-02-06T01:51:43.195Z,21.47
2019-02-06T01:54:12.930Z,20.33
2019-02-06T01:56:42.717Z,20.40
2019-02-06T01:59:12.467Z,20.03
2019-02-06T02:01:42.189Z,20.33
2019-02-06T02:04:12.018Z,19.70
2019-02-06T02:06:41.854Z,20.77
2019-02-06T02:09:19.590Z,19.90
2019-02-06T02:11:49.741Z,18.37
2019-02-06T02:14:19.498Z,19.23
2019-02-06T02:16:49.370Z,19.63
2019-02-06T02:19:19.074Z,18.03
2019-02-06T02:21:48.861Z,21.20
2019-02-06T02:24:18.629Z,17.97
2019-02-06T02:26:48.414Z,19.03
2019-02-06T02:29:18.183Z,19.30
2019-02-06T02:31:47.975Z,17.70
2019-02-06T02:34:17.863Z,18.57
2019-02-06T02:36:47.773Z,17.83
2019-02-06T02:39:17.460Z,18.37
2019-02-06T02:41:47.290Z,19.50
2019-02-06T02:44:17.266Z,19.23
2019-02-06T02:46:47.051Z,19.43
2019-02-06T02:49:16.885Z,19.80
2019-02-06T02:51:46.635Z,21.17
2019-02-06T02:54:16.346Z,19.10
2019-02-06T02:56:46.123Z,19.00
2019-02-06T02:59:16.257Z,19.03
2019-02-06T03:01:53.520Z,18.83
2019-02-06T03:04:31.596Z,18.73
2019-02-06T03:07:01.369Z,19.33
2019-02-06T03:09:31.126Z,20.47
2019-02-06T03:12:00.801Z,18.57
2019-02-06T03:14:30.565Z,19.70
2019-02-06T03:17:03.157Z,17.60
2019-02-06T03:19:32.021Z,18.70
2019-02-06T03:22:01.727Z,18.63
2019-02-06T03:24:31.596Z,19.67
2019-02-06T03:27:01.336Z,20.20
2019-02-06T03:29:31.105Z,20.67
2019-02-06T03:32:00.856Z,20.00
2019-02-06T03:34:30.590Z,19.20
2019-02-06T03:37:00.314Z,20.70
2019-02-06T03:39:30.305Z,19.90
2019-02-06T03:42:00.079Z,20.23
2019-02-06T03:44:29.873Z,20.90
2019-02-06T03:46:59.613Z,19.93
2019-02-06T03:49:29.502Z,20.40
2019-02-06T03:51:59.208Z,21.00
2019-02-06T03:54:29.281Z,21.07
2019-02-06T03:56:59.369Z,20.10
2019-02-06T03:59:29.161Z,20.80
2019-02-06T04:01:58.854Z,20.27
2019-02-06T04:04:28.577Z,20.50
2019-02-06T04:07:01.022Z,20.97
2019-02-06T04:09:29.785Z,22.20
2019-02-06T04:11:59.782Z,20.73
2019-02-06T04:14:29.589Z,20.30
2019-02-06T04:16:59.683Z,18.83
2019-02-06T04:19:29.458Z,19.10
2019-02-06T04:21:59.217Z,18.50
2019-02-06T04:24:29.066Z,19.23
2019-02-06T04:26:58.811Z,19.27
2019-02-06T04:29:28.546Z,18.97
2019-02-06T04:31:58.249Z,18.33
2019-02-06T04:34:28.150Z,20.43
2019-02-06T04:37:06.314Z,19.97
2019-02-06T04:39:29.241Z,19.20
2019-02-06T04:41:58.948Z,19.57
2019-02-06T04:44:28.579Z,21.00
2019-02-06T04:46:58.394Z,19.87
2019-02-06T04:49:28.182Z,18.83
2019-02-06T04:51:57.854Z,19.80
2019-02-06T04:54:27.601Z,20.33
2019-02-06T04:56:57.262Z,21.10
2019-02-06T04:59:27.042Z,21.10
2019-02-06T05:01:56.799Z,22.10
2019-02-06T05:04:26.549Z,22.83
2019-02-06T05:06:56.332Z,22.60
2019-02-06T05:09:26.162Z,21.90
2019-02-06T05:11:55.851Z,23.07
2019-02-06T05:14:25.558Z,23.27
2019-02-06T05:16:55.390Z,22.40
2019-02-06T05:19:25.037Z,22.03
2019-02-06T05:21:54.780Z,23.47
2019-02-06T05:24:24.539Z,22.37
2019-02-06T05:26:54.169Z,22.70
2019-02-06T05:29:23.967Z,25.30
2019-02-06T05:31:53.625Z,24.33
2019-02-06T05:34:23.266Z,24.87
2019-02-06T05:36:53.018Z,25.00
2019-02-06T05:39:22.725Z,22.73
2019-02-06T05:41:52.506Z,22.50
2019-02-06T05:44:22.282Z,21.63
2019-02-06T05:46:52.143Z,23.37
2019-02-06T05:49:21.999Z,24.27
2019-02-06T05:51:51.708Z,23.60
2019-02-06T05:54:21.569Z,23.77
2019-02-06T05:56:51.263Z,22.67
2019-02-06T05:59:21.045Z,23.63
2019-02-06T06:01:50.746Z,24.50
2019-02-06T06:04:20.553Z,24.07
2019-02-06T06:06:50.214Z,22.90
2019-02-06T06:09:20.197Z,22.70
2019-02-06T06:11:50.050Z,22.60
2019-02-06T06:14:19.791Z,22.47
2019-02-06T06:16:49.543Z,23.83
2019-02-06T06:19:19.333Z,24.97
2019-02-06T06:21:49.192Z,24.17
2019-02-06T06:24:19.366Z,23.83
2019-02-06T06:26:49.134Z,23.27
2019-02-06T06:29:18.813Z,23.10
2019-02-06T06:31:48.596Z,24.30
2019-02-06T06:34:18.294Z,23.97
2019-02-06T06:36:47.927Z,23.10
2019-02-06T06:39:18.060Z,23.47
2019-02-06T06:41:47.846Z,23.30
2019-02-06T06:44:17.601Z,24.77
2019-02-06T06:46:47.271Z,23.57
2019-02-06T06:49:16.945Z,22.90
2019-02-06T06:51:46.713Z,22.40
2019-02-06T06:54:16.834Z,22.53
2019-02-06T06:56:46.636Z,21.83
2019-02-06T06:59:16.266Z,22.57
2019-02-06T07:01:45.942Z,20.80
2019-02-06T07:04:15.902Z,23.20
2019-02-06T07:06:46.473Z,22.70
2019-02-06T07:09:16.402Z,21.70
2019-02-06T07:11:46.174Z,21.40
2019-02-06T07:14:15.945Z,21.57
2019-02-06T07:16:45.698Z,21.73
2019-02-06T07:19:15.413Z,21.70
2019-02-06T07:21:45.273Z,21.07
2019-02-06T07:24:15.094Z,21.57
2019-02-06T07:26:44.784Z,20.30
2019-02-06T07:29:14.555Z,21.80
2019-02-06T07:31:44.312Z,21.17
2019-02-06T07:34:14.340Z,20.23
2019-02-06T07:36:44.088Z,21.20
2019-02-06T07:39:13.784Z,22.23
2019-02-06T07:41:43.645Z,19.97
2019-02-06T07:44:13.557Z,20.07
2019-02-06T07:46:43.348Z,22.00
2019-02-06T07:49:13.094Z,20.53
2019-02-06T07:51:42.889Z,20.63
2019-02-06T07:54:12.637Z,20.83
2019-02-06T07:56:42.416Z,19.93
2019-02-06T07:59:12.417Z,19.53
2019-02-06T08:01:42.141Z,19.97
2019-02-06T08:04:11.974Z,21.87
2019-02-06T08:06:41.665Z,20.13
2019-02-06T08:09:11.464Z,21.57
2019-02-06T08:11:41.084Z,19.80
2019-02-06T08:14:10.946Z,19.43
2019-02-06T08:16:40.741Z,19.63
2019-02-06T08:19:10.480Z,19.50
2019-02-06T08:21:40.262Z,20.00
2019-02-06T08:24:10.151Z,19.10
2019-02-06T08:26:39.934Z,19.40
2019-02-06T08:29:09.633Z,18.90
2019-02-06T08:31:39.343Z,19.17
2019-02-06T08:34:08.982Z,19.70
2019-02-06T08:36:38.813Z,20.07
2019-02-06T08:39:09.763Z,20.13
2019-02-06T08:41:39.653Z,19.73
2019-02-06T08:44:09.550Z,20.33
2019-02-06T08:46:39.222Z,19.87
2019-02-06T08:49:10.856Z,19.43
2019-02-06T08:51:40.352Z,20.73
2019-02-06T08:54:10.145Z,19.47
2019-02-06T08:56:40.186Z,19.77
2019-02-06T08:59:10.758Z,19.67
2019-02-06T09:01:40.389Z,19.60
2019-02-06T09:04:10.153Z,20.20
2019-02-06T09:06:40.129Z,18.77
2019-02-06T09:09:11.610Z,19.77
2019-02-06T09:11:41.346Z,18.60
2019-02-06T09:14:11.043Z,18.90
2019-02-06T09:16:40.898Z,18.63
2019-02-06T09:19:10.681Z,20.57
2019-02-06T09:21:40.385Z,20.93
2019-02-06T09:24:10.218Z,19.93
2019-02-06T09:26:40.008Z,20.20
2019-02-06T09:29:09.749Z,21.13
2019-02-06T09:31:39.412Z,20.40
2019-02-06T09:34:09.858Z,19.70
2019-02-06T09:36:39.710Z,18.57
2019-02-06T09:39:12.053Z,18.83
2019-02-06T09:41:42.857Z,19.03
2019-02-06T09:44:12.705Z,24.67
2019-02-06T09:46:42.444Z,18.17
2019-02-06T09:49:15.032Z,19.60
2019-02-06T09:51:43.829Z,18.80
2019-02-06T09:54:13.602Z,19.10
2019-02-06T09:56:43.442Z,19.83
2019-02-06T09:59:13.162Z,19.10
2019-02-06T10:01:42.884Z,18.57
2019-02-06T10:04:13.016Z,19.30
2019-02-06T10:06:42.885Z,17.97
2019-02-06T10:09:22.593Z,18.87
2019-02-06T10:11:43.977Z,18.70
2019-02-06T10:14:13.770Z,17.00
2019-02-06T10:16:43.474Z,18.63
2019-02-06T10:19:13.416Z,19.17
2019-02-06T10:21:43.345Z,16.77
2019-02-06T10:24:13.021Z,15.13
2019-02-06T10:26:42.777Z,17.47
2019-02-06T10:29:12.578Z,17.57
2019-02-06T10:31:42.486Z,15.00
2019-02-06T10:34:12.289Z,13.53
2019-02-06T10:36:42.030Z,13.70
2019-02-06T10:39:11.905Z,13.47
2019-02-06T10:41:41.714Z,12.10
2019-02-06T10:44:11.508Z,13.20
2019-02-06T10:46:41.155Z,13.07
2019-02-06T10:49:10.882Z,12.67
2019-02-06T10:51:40.597Z,12.83
2019-02-06T10:54:10.404Z,11.07
2019-02-06T10:56:40.073Z,13.00
2019-02-06T10:59:09.732Z,9.07
2019-02-06T11:01:39.410Z,10.80
2019-02-06T11:04:09.221Z,11.40
2019-02-06T11:06:38.980Z,8.93
2019-02-06T11:09:08.958Z,9.07
2019-02-06T11:11:38.683Z,9.53
2019-02-06T11:14:08.498Z,9.70
2019-02-06T11:16:38.308Z,10.17
2019-02-06T11:19:08.242Z,10.37
2019-02-06T11:21:38.019Z,8.63
2019-02-06T11:24:08.839Z,10.63
2019-02-06T11:26:38.772Z,9.77
2019-02-06T11:29:08.796Z,9.43
2019-02-06T11:31:38.801Z,10.83
2019-02-06T11:34:08.555Z,11.23
2019-02-06T11:36:38.222Z,9.17
2019-02-06T11:39:17.408Z,10.53
2019-02-06T11:41:47.225Z,9.50
2019-02-06T11:44:17.319Z,8.97
2019-02-06T11:46:47.032Z,10.47
2019-02-06T11:49:17.592Z,9.60
2019-02-06T11:51:47.397Z,9.97
2019-02-06T11:54:17.027Z,9.90
2019-02-06T11:56:46.654Z,10.70
2019-02-06T11:59:16.684Z,10.77
2019-02-06T12:01:50.909Z,9.30
2019-02-06T12:04:20.669Z,10.67
2019-02-06T12:06:50.554Z,11.17
2019-02-06T12:09:20.298Z,11.30
2019-02-06T12:11:49.957Z,9.60
2019-02-06T12:14:19.637Z,10.67
2019-02-06T12:16:49.368Z,11.13
2019-02-06T12:19:19.233Z,10.97
2019-02-06T12:21:48.917Z,11.70
2019-02-06T12:24:18.686Z,11.03
2019-02-06T12:26:48.414Z,11.67
2019-02-06T12:29:18.350Z,11.10
2019-02-06T12:31:48.061Z,12.50
2019-02-06T12:34:17.769Z,12.33
2019-02-06T12:36:47.532Z,13.00
2019-02-06T12:39:17.184Z,11.40
2019-02-06T12:41:46.845Z,11.70
2019-02-06T12:44:16.671Z,13.03
2019-02-06T12:46:46.809Z,13.27
2019-02-06T12:49:16.710Z,13.57
2019-02-06T12:51:46.438Z,13.07
2019-02-06T12:54:16.228Z,12.13
2019-02-06T12:56:46.002Z,13.00
2019-02-06T12:59:15.745Z,11.80
2019-02-06T13:01:45.946Z,12.40
2019-02-06T13:04:15.761Z,12.13
2019-02-06T13:06:45.510Z,12.97
2019-02-06T13:09:15.381Z,12.00
2019-02-06T13:11:45.045Z,12.93
2019-02-06T13:14:14.765Z,12.77
2019-02-06T13:16:44.938Z,12.93
2019-02-06T13:19:14.705Z,13.83
2019-02-06T13:21:44.578Z,14.33
2019-02-06T13:24:14.349Z,13.50
2019-02-06T13:26:44.331Z,13.40
2019-02-06T13:29:14.001Z,14.93
2019-02-06T13:31:43.969Z,14.40
2019-02-06T13:34:13.749Z,13.77
2019-02-06T13:36:43.521Z,14.13
2019-02-06T13:39:13.245Z,14.30
2019-02-06T13:41:42.974Z,13.20
2019-02-06T13:44:12.745Z,13.80
2019-02-06T13:46:53.041Z,13.53
2019-02-06T13:49:13.942Z,15.07
2019-02-06T13:51:43.621Z,14.37
2019-02-06T13:54:13.276Z,14.17
2019-02-06T13:56:42.909Z,14.17
2019-02-06T13:59:12.718Z,14.30
2019-02-06T14:01:42.431Z,14.07
2019-02-06T14:04:12.185Z,14.17
2019-02-06T14:06:41.980Z,14.90
2019-02-06T14:09:22.753Z,14.53
2019-02-06T14:11:47.215Z,14.50
2019-02-06T14:14:16.846Z,12.93
2019-02-06T14:16:46.581Z,13.90
2019-02-06T14:19:16.234Z,14.90
2019-02-06T14:21:46.113Z,15.00
2019-02-06T14:24:44.753Z,15.10
2019-02-06T14:27:36.892Z,14.17
2019-02-06T14:30:37.653Z,14.97
2019-02-06T14:33:52.722Z,14.27
2019-02-06T14:37:30.412Z,13.87
2019-02-06T14:40:45.963Z,13.73
2019-02-06T14:43:45.873Z,13.90
2019-02-06T14:46:58.871Z,14.13
2019-02-06T14:49:51.829Z,14.33
2019-02-06T14:53:10.935Z,13.97
2019-02-06T14:55:53.812Z,12.77
2019-02-06T14:59:26.220Z,13.17
2019-02-06T15:02:25.797Z,14.63
2019-02-06T15:05:38.982Z,15.17
2019-02-06T15:08:43.637Z,14.30
2019-02-06T15:11:25.316Z,15.77
2019-02-06T15:14:20.932Z,14.97
2019-02-06T15:17:19.469Z,15.67
2019-02-06T15:20:00.776Z,15.73
2019-02-06T15:23:13.141Z,15.60
2019-02-06T15:26:09.000Z,14.93
2019-02-06T15:29:02.056Z,16.30
2019-02-06T15:31:47.481Z,15.83
2019-02-06T15:35:00.747Z,15.13
2019-02-06T15:37:55.477Z,16.57
2019-02-06T15:40:53.013Z,16.57
2019-02-06T15:43:47.640Z,15.27
2019-02-06T15:46:49.553Z,15.33
2019-02-06T15:49:40.104Z,15.20
2019-02-06T15:52:53.339Z,15.83
2019-02-06T15:56:18.708Z,17.17
2019-02-06T15:59:28.069Z,16.83
2019-02-06T16:02:39.455Z,15.87
2019-02-06T16:05:52.449Z,15.70
2019-02-06T16:09:05.906Z,16.73
2019-02-06T16:12:03.201Z,16.87
2019-02-06T16:15:13.574Z,16.53
2019-02-06T16:18:13.352Z,17.23
2019-02-06T16:21:23.396Z,16.13
2019-02-06T16:24:40.020Z,16.77
2019-02-06T16:27:44.550Z,18.40
2019-02-06T16:30:32.313Z,16.37
2019-02-06T16:33:25.969Z,16.77
2019-02-06T16:36:51.641Z,17.77
2019-02-06T16:39:46.764Z,15.83
2019-02-06T16:43:11.925Z,16.83
2019-02-06T16:46:32.593Z,17.10
2019-02-06T16:49:36.185Z,17.00
2019-02-06T16:53:04.534Z,16.37
2019-02-06T16:56:16.468Z,16.20
2019-02-06T16:59:20.665Z,15.67
2019-02-06T17:02:36.069Z,16.83
2019-02-06T17:05:51.263Z,16.70
2019-02-06T17:09:13.014Z,18.63
2019-02-06T17:12:41.060Z,16.87
2019-02-06T17:15:44.548Z,18.23
2019-02-06T17:18:49.370Z,18.67
2019-02-06T17:22:11.317Z,18.23
2019-02-06T17:24:58.667Z,18.90
2019-02-06T17:28:06.458Z,17.93
2019-02-06T17:31:13.364Z,19.03
2019-02-06T17:34:11.337Z,17.00
2019-02-06T17:37:13.164Z,16.63
2019-02-06T17:40:06.752Z,17.50
2019-02-06T17:43:27.941Z,16.20
2019-02-06T17:46:42.901Z,15.93
2019-02-06T17:49:54.526Z,18.73
2019-02-06T17:53:03.717Z,16.80
2019-02-06T17:55:33.337Z,17.93
2019-02-06T17:58:05.761Z,19.13
2019-02-06T18:00:54.821Z,17.50
2019-02-06T18:03:26.326Z,18.30
2019-02-06T18:05:56.141Z,18.17
2019-02-06T18:08:25.955Z,18.00
2019-02-06T18:10:55.668Z,18.40
2019-02-06T18:13:26.485Z,17.60
2019-02-06T18:15:56.186Z,18.67
2019-02-06T18:18:26.321Z,19.57
2019-02-06T18:20:56.031Z,18.37
2019-02-06T18:23:25.840Z,17.57
2019-02-06T18:25:56.935Z,17.80
2019-02-06T18:28:26.744Z,18.03
2019-02-06T18:30:56.587Z,18.43
2019-02-06T18:33:27.405Z,19.43
2019-02-06T18:35:57.141Z,19.00
2019-02-06T18:38:26.926Z,19.47
2019-02-06T18:40:56.637Z,20.60
2019-02-06T18:43:26.376Z,20.37
2019-02-06T18:45:56.234Z,20.13
2019-02-06T18:48:26.637Z,21.97
2019-02-06T18:50:56.656Z,21.73
2019-02-06T18:53:26.277Z,20.80
2019-02-06T18:55:55.952Z,21.37
2019-02-06T18:58:27.455Z,21.60
2019-02-06T19:00:57.062Z,20.67
2019-02-06T19:03:31.395Z,22.67
2019-02-06T19:06:01.092Z,21.63
2019-02-06T19:08:31.077Z,21.67
2019-02-06T19:11:00.911Z,20.57
2019-02-06T19:13:30.663Z,19.67
2019-02-06T19:16:00.553Z,20.57
2019-02-06T19:18:30.614Z,19.43
2019-02-06T19:21:00.417Z,20.03
2019-02-06T19:23:30.240Z,20.77
2019-02-06T19:26:00.290Z,20.37
2019-02-06T19:28:30.094Z,21.33
2019-02-06T19:30:59.928Z,22.20
2019-02-06T19:33:29.749Z,21.17
2019-02-06T19:36:00.553Z,21.60
2019-02-06T19:38:30.438Z,22.30
2019-02-06T19:41:00.528Z,24.20
2019-02-06T19:43:30.345Z,22.33
2019-02-06T19:46:00.107Z,23.67
2019-02-06T19:48:29.907Z,24.10
2019-02-06T19:50:59.617Z,22.10
2019-02-06T19:53:29.457Z,23.07
2019-02-06T19:55:59.206Z,24.03
2019-02-06T19:58:29.198Z,23.00
2019-02-06T20:00:58.916Z,22.73
2019-02-06T20:03:28.787Z,22.57
2019-02-06T20:05:58.585Z,21.80
2019-02-06T20:08:28.554Z,21.83
2019-02-06T20:10:58.577Z,20.53
2019-02-06T20:13:28.355Z,21.13
2019-02-06T20:15:58.366Z,21.00
2019-02-06T20:18:28.275Z,22.10
2019-02-06T20:20:58.178Z,21.20
2019-02-06T20:23:28.317Z,23.20
2019-02-06T20:25:58.238Z,22.93
2019-02-06T20:28:28.026Z,21.60
2019-02-06T20:30:58.186Z,21.97
2019-02-06T20:33:27.989Z,20.47
2019-02-06T20:35:57.777Z,20.43
2019-02-06T20:38:27.593Z,21.37
2019-02-06T20:40:57.461Z,21.70
2019-02-06T20:43:27.300Z,23.07
2019-02-06T20:45:57.145Z,21.67
2019-02-06T20:48:27.071Z,21.27
2019-02-06T20:50:56.907Z,20.03
2019-02-06T20:53:26.785Z,20.03
2019-02-06T20:55:56.711Z,21.60
2019-02-06T20:58:26.589Z,21.37
2019-02-06T21:00:56.525Z,21.00
2019-02-06T21:03:26.578Z,20.47
2019-02-06T21:05:56.754Z,20.17
2019-02-06T21:08:30.805Z,18.40
2019-02-06T21:11:00.719Z,18.67
2019-02-06T21:13:33.096Z,19.30
2019-02-06T21:16:02.240Z,19.13
2019-02-06T21:18:32.456Z,18.57
2019-02-06T21:21:02.319Z,17.30
2019-02-06T21:23:34.363Z,19.33
2019-02-06T21:26:04.254Z,19.27
2019-02-06T21:28:35.566Z,17.83
2019-02-06T21:31:05.609Z,18.23
2019-02-06T21:33:35.473Z,18.07
2019-02-06T21:36:05.298Z,19.53
2019-02-06T21:38:35.262Z,19.53
2019-02-06T21:41:05.153Z,19.60
2019-02-06T21:43:43.840Z,19.20
2019-02-06T21:46:06.345Z,19.43
2019-02-06T21:48:36.045Z,20.87
2019-02-06T21:51:05.878Z,21.17
2019-02-06T21:53:35.664Z,19.83
2019-02-06T21:56:05.626Z,19.27
2019-02-06T21:58:35.374Z,20.63
2019-02-06T22:01:05.366Z,19.47
2019-02-06T22:03:35.012Z,21.03
2019-02-06T22:06:04.839Z,19.90
2019-02-06T22:08:34.497Z,18.87
2019-02-06T22:11:04.200Z,20.53
2019-02-06T22:13:34.205Z,21.10
2019-02-06T22:16:04.042Z,23.00
2019-02-06T22:18:33.740Z,21.83
2019-02-06T22:21:03.553Z,21.93
2019-02-06T22:23:35.167Z,21.90
2019-02-06T22:26:04.900Z,20.90
2019-02-06T22:28:34.688Z,21.10
2019-02-06T22:31:04.568Z,23.07
2019-02-06T22:33:34.325Z,21.57
2019-02-06T22:36:04.232Z,24.13
2019-02-06T22:38:33.989Z,20.83
2019-02-06T22:41:03.713Z,22.10
2019-02-06T22:43:33.503Z,22.30
2019-02-06T22:46:03.334Z,20.90
2019-02-06T22:48:33.057Z,20.10
2019-02-06T22:51:02.853Z,21.03
2019-02-06T22:53:32.601Z,19.97
2019-02-06T22:56:02.561Z,21.03
2019-02-06T22:58:32.418Z,19.77
2019-02-06T23:01:14.798Z,20.83
2019-02-06T23:03:46.218Z,21.53
2019-02-06T23:06:16.110Z,19.97
2019-02-06T23:08:46.133Z,20.70
2019-02-06T23:11:16.244Z,20.93
2019-02-06T23:13:46.015Z,21.97
2019-02-06T23:16:15.747Z,22.27
2019-02-06T23:18:45.598Z,20.97
2019-02-06T23:21:15.329Z,21.60
2019-02-06T23:23:45.095Z,20.53
2019-02-06T23:26:14.831Z,20.47
2019-02-06T23:28:44.513Z,20.20
2019-02-06T23:31:14.359Z,20.77
2019-02-06T23:33:44.514Z,21.87
2019-02-06T23:36:14.563Z,22.17
2019-02-06T23:38:44.266Z,21.77
2019-02-06T23:41:14.009Z,21.60
2019-02-06T23:43:43.778Z,23.10
2019-02-06T23:46:13.530Z,22.67
2019-02-06T23:48:43.278Z,21.83
2019-02-06T23:51:13.021Z,23.30
2019-02-06T23:53:42.737Z,24.63
2019-02-06T23:56:12.477Z,24.17
2019-02-06T23:58:42.232Z,23.60
